createdAt,value
2018-10-16T00:02:24.642Z,10.37
2018-10-16T00:04:52.956Z,9.80
2018-10-16T00:07:21.921Z,10.03
2018-10-16T00:09:50.867Z,10.20
2018-10-16T00:12:19.226Z,10.37
2018-10-16T00:14:47.558Z,10.27
2018-10-16T00:17:16.398Z,9.70
2018-10-16T00:19:45.090Z,9.97
2018-10-16T00:22:13.484Z,10.20
2018-10-16T00:24:41.842Z,9.90
2018-10-16T00:27:10.221Z,9.90
2018-10-16T00:29:38.592Z,10.00
2018-10-16T00:32:07.479Z,10.23
2018-10-16T00:34:35.765Z,10.10
2018-10-16T00:37:04.207Z,10.07
2018-10-16T00:39:33.133Z,10.53
2018-10-16T00:42:01.473Z,9.83
2018-10-16T00:44:30.501Z,9.70
2018-10-16T00:46:59.199Z,10.73
2018-10-16T00:49:27.901Z,10.60
2018-10-16T00:51:56.230Z,11.10
2018-10-16T00:54:25.085Z,10.77
2018-10-16T00:56:53.400Z,10.27
2018-10-16T00:59:21.703Z,9.90
2018-10-16T01:01:50.914Z,9.87
2018-10-16T01:04:19.766Z,10.20
2018-10-16T01:06:48.106Z,10.50
2018-10-16T01:09:16.764Z,10.53
2018-10-16T01:11:45.095Z,10.50
2018-10-16T01:14:13.450Z,10.17
2018-10-16T01:16:42.269Z,9.90
2018-10-16T01:19:10.561Z,9.47
2018-10-16T01:21:39.038Z,10.40
2018-10-16T01:24:07.346Z,10.70
2018-10-16T01:26:35.633Z,9.53
2018-10-16T01:29:04.041Z,10.07
2018-10-16T01:31:32.989Z,10.00
2018-10-16T01:34:01.959Z,10.47
2018-10-16T01:36:30.280Z,10.00
2018-10-16T01:38:59.060Z,10.63
2018-10-16T01:41:27.771Z,10.43
2018-10-16T01:43:56.089Z,10.40
2018-10-16T01:46:24.953Z,10.63
2018-10-16T01:48:53.248Z,11.20
2018-10-16T01:51:22.197Z,9.23
2018-10-16T01:53:50.828Z,10.10
2018-10-16T01:56:19.169Z,9.87
2018-10-16T01:58:47.693Z,10.67
2018-10-16T02:01:16.032Z,11.10
2018-10-16T02:03:44.728Z,10.03
2018-10-16T02:06:13.027Z,10.87
2018-10-16T02:08:47.234Z,10.80
2018-10-16T02:11:15.566Z,10.73
2018-10-16T02:13:43.892Z,10.80
2018-10-16T02:16:12.474Z,10.93
2018-10-16T02:18:40.779Z,10.27
2018-10-16T02:21:09.339Z,11.93
2018-10-16T02:23:38.000Z,10.83
2018-10-16T02:26:06.678Z,10.30
2018-10-16T02:28:35.304Z,10.73
2018-10-16T02:31:04.150Z,10.40
2018-10-16T02:33:32.502Z,10.53
2018-10-16T02:36:00.801Z,9.67
2018-10-16T02:38:29.593Z,10.57
2018-10-16T02:40:58.333Z,10.60
2018-10-16T02:43:26.635Z,11.10
2018-10-16T02:45:54.980Z,10.60
2018-10-16T02:48:23.522Z,10.53
2018-10-16T02:50:51.898Z,11.90
2018-10-16T02:53:20.253Z,10.90
2018-10-16T02:55:48.615Z,10.50
2018-10-16T02:58:17.083Z,9.57
2018-10-16T03:00:45.496Z,10.50
2018-10-16T03:03:14.427Z,9.90
2018-10-16T03:05:42.758Z,11.07
2018-10-16T03:08:11.572Z,11.00
2018-10-16T03:10:39.889Z,10.10
2018-10-16T03:13:08.330Z,10.30
2018-10-16T03:15:38.472Z,10.23
2018-10-16T03:18:07.901Z,10.60
2018-10-16T03:20:36.540Z,11.10
2018-10-16T03:23:04.949Z,10.93
2018-10-16T03:25:33.257Z,10.37
2018-10-16T03:28:01.881Z,10.47
2018-10-16T03:30:30.650Z,11.30
2018-10-16T03:32:59.585Z,10.93
2018-10-16T03:35:27.944Z,10.40
2018-10-16T03:37:57.025Z,10.87
2018-10-16T03:40:25.322Z,10.60
2018-10-16T03:42:53.667Z,11.77
2018-10-16T03:45:22.002Z,10.70
2018-10-16T03:47:50.669Z,10.40
2018-10-16T03:50:19.012Z,9.83
2018-10-16T03:52:47.328Z,10.83
2018-10-16T03:55:15.670Z,10.80
2018-10-16T03:57:43.974Z,11.00
2018-10-16T04:00:12.603Z,10.47
2018-10-16T04:02:41.678Z,9.80
2018-10-16T04:05:10.046Z,10.80
2018-10-16T04:07:39.563Z,10.67
2018-10-16T04:10:09.114Z,10.77
2018-10-16T04:12:37.787Z,10.53
2018-10-16T04:15:07.085Z,10.27
2018-10-16T04:17:35.758Z,11.70
2018-10-16T04:20:04.193Z,9.93
2018-10-16T04:22:33.052Z,10.53
2018-10-16T04:25:01.687Z,10.77
2018-10-16T04:27:30.007Z,11.17
2018-10-16T04:29:58.397Z,11.40
2018-10-16T04:32:26.784Z,11.23
2018-10-16T04:34:55.126Z,11.20
2018-10-16T04:37:24.475Z,10.43
2018-10-16T04:39:52.819Z,10.83
2018-10-16T04:42:21.213Z,10.67
2018-10-16T04:44:49.570Z,10.93
2018-10-16T04:47:18.674Z,10.60
2018-10-16T04:49:46.990Z,10.83
2018-10-16T04:52:15.385Z,10.47
2018-10-16T04:54:44.012Z,11.43
2018-10-16T04:57:12.387Z,11.20
2018-10-16T04:59:40.775Z,11.83
2018-10-16T05:02:10.240Z,11.50
2018-10-16T05:04:39.130Z,11.30
2018-10-16T05:07:07.844Z,10.87
2018-10-16T05:09:36.377Z,11.13
2018-10-16T05:12:04.774Z,11.90
2018-10-16T05:14:33.198Z,11.27
2018-10-16T05:17:01.974Z,11.47
2018-10-16T05:19:30.289Z,11.77
2018-10-16T05:21:59.239Z,11.70
2018-10-16T05:24:27.974Z,11.67
2018-10-16T05:26:56.247Z,14.63
2018-10-16T05:29:24.524Z,13.27
2018-10-16T05:31:52.857Z,12.37
2018-10-16T05:34:21.237Z,11.70
2018-10-16T05:36:49.625Z,11.83
2018-10-16T05:39:18.453Z,12.63
2018-10-16T05:41:46.789Z,12.23
2018-10-16T05:44:15.085Z,11.93
2018-10-16T05:46:44.162Z,12.17
2018-10-16T05:49:13.145Z,11.60
2018-10-16T05:51:41.482Z,11.83
2018-10-16T05:54:10.375Z,12.83
2018-10-16T05:56:38.726Z,11.67
2018-10-16T05:59:07.062Z,12.00
2018-10-16T06:01:35.398Z,12.70
2018-10-16T06:04:03.946Z,11.77
2018-10-16T06:06:32.330Z,11.67
2018-10-16T06:09:00.958Z,12.10
2018-10-16T06:11:29.253Z,11.83
2018-10-16T06:13:57.575Z,12.07
2018-10-16T06:16:26.379Z,13.27
2018-10-16T06:18:54.683Z,14.30
2018-10-16T06:21:24.054Z,12.70
2018-10-16T06:23:52.367Z,13.80
2018-10-16T06:26:20.669Z,12.30
2018-10-16T06:28:49.008Z,13.00
2018-10-16T06:31:17.273Z,13.07
2018-10-16T06:33:45.805Z,12.67
2018-10-16T06:36:14.151Z,12.60
2018-10-16T06:38:43.730Z,11.50
2018-10-16T06:41:12.080Z,11.97
2018-10-16T06:43:40.737Z,12.17
2018-10-16T06:46:09.474Z,12.23
2018-10-16T06:48:38.385Z,12.13
2018-10-16T06:51:06.460Z,12.27
2018-10-16T06:53:34.771Z,12.10
2018-10-16T06:56:03.185Z,12.30
2018-10-16T06:58:31.596Z,12.20
2018-10-16T07:00:59.990Z,12.20
2018-10-16T07:03:28.894Z,13.03
2018-10-16T07:05:57.267Z,12.40
2018-10-16T07:08:26.590Z,11.90
2018-10-16T07:10:55.040Z,12.70
2018-10-16T07:13:23.377Z,12.73
2018-10-16T07:15:52.426Z,12.40
2018-10-16T07:18:21.959Z,12.13
2018-10-16T07:20:50.256Z,12.60
2018-10-16T07:23:19.055Z,12.87
2018-10-16T07:25:47.410Z,12.87
2018-10-16T07:28:15.761Z,12.30
2018-10-16T07:30:44.124Z,12.53
2018-10-16T07:33:12.487Z,13.03
2018-10-16T07:35:40.934Z,12.13
2018-10-16T07:38:10.012Z,12.33
2018-10-16T07:40:39.015Z,12.30
2018-10-16T07:43:07.872Z,12.73
2018-10-16T07:45:36.224Z,12.93
2018-10-16T07:48:05.365Z,12.60
2018-10-16T07:50:33.649Z,12.33
2018-10-16T07:53:02.031Z,12.17
2018-10-16T07:55:30.362Z,12.17
2018-10-16T07:57:58.659Z,12.00
2018-10-16T08:00:30.535Z,12.30
2018-10-16T08:02:59.783Z,12.07
2018-10-16T08:05:28.073Z,11.93
2018-10-16T08:07:56.993Z,11.73
2018-10-16T08:10:25.333Z,11.40
2018-10-16T08:12:53.431Z,10.80
2018-10-16T08:15:21.539Z,11.37
2018-10-16T08:17:50.169Z,10.65
2018-10-16T08:20:18.294Z,11.73
2018-10-16T08:22:46.873Z,11.57
2018-10-16T08:25:14.946Z,10.90
2018-10-16T08:27:43.810Z,11.28
2018-10-16T08:30:12.249Z,11.33
2018-10-16T08:32:40.447Z,11.40
2018-10-16T08:35:08.757Z,11.70
2018-10-16T08:37:56.896Z,10.75
2018-10-16T08:40:25.711Z,11.88
2018-10-16T08:43:18.896Z,11.40
2018-10-16T08:45:58.327Z,11.33
2018-10-16T08:48:38.106Z,10.88
2018-10-16T08:51:18.205Z,12.15
2018-10-16T08:53:46.597Z,11.63
2018-10-16T08:56:14.904Z,11.90
2018-10-16T08:58:43.247Z,11.10
2018-10-16T09:01:11.589Z,11.50
2018-10-16T09:03:40.643Z,11.55
2018-10-16T09:06:08.961Z,11.15
2018-10-16T09:08:37.950Z,11.18
2018-10-16T09:11:06.338Z,12.73
2018-10-16T09:13:34.758Z,11.70
2018-10-16T09:16:03.852Z,11.30
2018-10-16T09:18:32.186Z,11.33
2018-10-16T09:21:01.461Z,11.57
2018-10-16T09:23:30.300Z,10.78
2018-10-16T09:25:59.364Z,11.40
2018-10-16T09:28:27.850Z,11.60
2018-10-16T09:30:57.330Z,12.23
2018-10-16T09:33:25.738Z,12.25
2018-10-16T09:35:54.033Z,12.13
2018-10-16T09:38:23.215Z,11.60
2018-10-16T09:40:51.628Z,11.35
2018-10-16T09:43:19.929Z,11.45
2018-10-16T09:45:48.275Z,12.95
2018-10-16T09:48:17.353Z,11.97
2018-10-16T09:50:45.755Z,10.95
2018-10-16T09:53:14.059Z,11.90
2018-10-16T09:55:42.511Z,11.57
2018-10-16T09:58:10.814Z,12.00
2018-10-16T10:00:46.181Z,12.45
2018-10-16T10:03:14.879Z,11.80
2018-10-16T10:05:43.167Z,12.63
2018-10-16T10:08:11.850Z,12.58
2018-10-16T10:10:40.569Z,12.60
2018-10-16T10:13:08.893Z,11.68
2018-10-16T10:15:37.217Z,12.33
2018-10-16T10:18:06.077Z,12.50
2018-10-16T10:20:35.016Z,11.85
2018-10-16T10:23:04.096Z,12.05
2018-10-16T10:25:32.369Z,13.43
2018-10-16T10:28:00.661Z,11.70
2018-10-16T10:30:28.934Z,12.30
2018-10-16T10:32:57.738Z,11.95
2018-10-16T10:35:26.048Z,11.97
2018-10-16T10:37:54.355Z,11.97
2018-10-16T10:40:22.640Z,12.20
2018-10-16T10:42:50.934Z,10.95
2018-10-16T10:45:19.309Z,12.58
2018-10-16T10:47:48.207Z,12.28
2018-10-16T10:50:16.697Z,12.23
2018-10-16T10:52:44.796Z,11.63
2018-10-16T10:55:13.559Z,11.60
2018-10-16T10:57:42.391Z,11.68
2018-10-16T11:00:12.223Z,12.15
2018-10-16T11:02:41.742Z,12.35
2018-10-16T11:05:11.044Z,11.85
2018-10-16T11:07:39.727Z,13.05
2018-10-16T11:10:10.250Z,11.28
2018-10-16T11:12:39.113Z,12.37
2018-10-16T11:15:07.766Z,11.22
2018-10-16T11:17:37.271Z,12.68
2018-10-16T11:20:06.245Z,11.35
2018-10-16T11:22:35.547Z,11.75
2018-10-16T11:25:04.143Z,11.10
2018-10-16T11:27:32.449Z,11.12
2018-10-16T11:30:00.771Z,11.45
2018-10-16T11:32:29.042Z,11.75
2018-10-16T11:34:57.438Z,12.05
2018-10-16T11:37:26.052Z,11.85
2018-10-16T11:39:54.360Z,13.45
2018-10-16T11:42:22.833Z,13.08
2018-10-16T11:44:51.220Z,12.68
2018-10-16T11:47:20.145Z,11.80
2018-10-16T11:49:48.890Z,13.45
2018-10-16T11:52:17.261Z,12.80
2018-10-16T11:54:45.565Z,14.53
2018-10-16T11:57:13.898Z,12.80
2018-10-16T11:59:42.319Z,13.48
2018-10-16T12:02:11.373Z,13.10
2018-10-16T12:04:39.623Z,11.83
2018-10-16T12:07:08.965Z,12.37
2018-10-16T12:09:37.737Z,13.55
2018-10-16T12:12:06.225Z,12.50
2018-10-16T12:14:34.682Z,14.70
2018-10-16T12:17:09.774Z,12.85
2018-10-16T12:19:43.382Z,12.37
2018-10-16T12:22:11.706Z,12.13
2018-10-16T12:24:40.666Z,12.75
2018-10-16T12:27:09.018Z,11.22
2018-10-16T12:29:37.349Z,11.45
2018-10-16T12:32:05.949Z,13.30
2018-10-16T12:34:34.222Z,12.88
2018-10-16T12:37:02.661Z,12.93
2018-10-16T12:39:31.018Z,13.13
2018-10-16T12:41:59.928Z,11.85
2018-10-16T12:44:28.644Z,10.78
2018-10-16T12:46:58.310Z,11.50
2018-10-16T12:49:26.613Z,11.78
2018-10-16T12:51:54.986Z,11.97
2018-10-16T12:54:23.405Z,10.85
2018-10-16T12:56:51.811Z,11.68
2018-10-16T12:59:20.064Z,11.45
2018-10-16T13:01:48.381Z,12.63
2018-10-16T13:04:17.098Z,12.18
2018-10-16T13:06:45.992Z,11.78
2018-10-16T13:09:14.917Z,11.57
2018-10-16T13:11:43.578Z,10.72
2018-10-16T13:14:11.925Z,10.48
2018-10-16T13:16:40.808Z,10.45
2018-10-16T13:19:09.110Z,11.90
2018-10-16T13:21:37.410Z,10.80
2018-10-16T13:24:06.557Z,11.15
2018-10-16T13:26:35.471Z,10.98
2018-10-16T13:29:03.833Z,10.70
2018-10-16T13:31:32.094Z,10.08
2018-10-16T13:34:00.635Z,10.38
2018-10-16T13:36:28.893Z,9.58
2018-10-16T13:38:57.270Z,10.08
2018-10-16T13:41:25.586Z,10.72
2018-10-16T13:43:53.912Z,11.60
2018-10-16T13:46:22.466Z,9.98
2018-10-16T13:48:51.194Z,11.05
2018-10-16T13:51:19.501Z,9.98
2018-10-16T13:53:48.078Z,10.03
2018-10-16T13:56:16.489Z,10.80
2018-10-16T13:58:45.511Z,10.08
2018-10-16T14:01:14.602Z,9.98
2018-10-16T14:03:43.397Z,9.60
2018-10-16T14:06:11.711Z,10.32
2018-10-16T14:08:40.582Z,11.48
2018-10-16T14:11:09.958Z,10.70
2018-10-16T14:13:38.257Z,10.60
2018-10-16T14:16:07.370Z,9.63
2018-10-16T14:18:35.710Z,10.98
2018-10-16T14:21:04.038Z,10.38
2018-10-16T14:23:32.853Z,10.63
2018-10-16T14:26:01.220Z,10.03
2018-10-16T14:28:29.445Z,10.18
2018-10-16T14:30:57.770Z,10.78
2018-10-16T14:33:26.102Z,11.50
2018-10-16T14:35:54.611Z,11.63
2018-10-16T14:38:22.940Z,11.70
2018-10-16T14:40:51.220Z,11.18
2018-10-16T14:43:19.543Z,12.53
2018-10-16T14:46:50.918Z,11.22
2018-10-16T14:49:19.604Z,10.28
2018-10-16T14:51:48.554Z,10.38
2018-10-16T14:54:16.942Z,10.70
2018-10-16T14:56:45.353Z,10.00
2018-10-16T14:59:13.813Z,10.43
2018-10-16T15:01:42.154Z,10.65
2018-10-16T15:04:11.059Z,10.82
2018-10-16T15:06:39.223Z,9.78
2018-10-16T15:09:09.181Z,9.80
2018-10-16T15:11:37.563Z,10.85
2018-10-16T15:14:05.976Z,10.15
2018-10-16T15:16:36.378Z,9.65
2018-10-16T15:19:04.699Z,9.95
2018-10-16T15:21:33.933Z,9.95
2018-10-16T15:24:03.598Z,9.60
2018-10-16T15:26:31.857Z,9.38
2018-10-16T15:29:00.152Z,10.55
2018-10-16T15:31:28.511Z,10.68
2018-10-16T15:33:57.406Z,11.03
2018-10-16T15:36:25.785Z,9.68
2018-10-16T15:38:54.746Z,10.30
2018-10-16T15:41:23.162Z,9.13
2018-10-16T15:43:52.073Z,8.93
2018-10-16T15:46:20.422Z,9.95
2018-10-16T15:51:25.166Z,10.13
2018-10-16T15:53:55.293Z,10.03
2018-10-16T15:56:23.672Z,9.68
2018-10-16T15:58:53.998Z,9.28
2018-10-16T16:01:22.587Z,9.48
2018-10-16T16:03:51.774Z,9.45
2018-10-16T16:06:20.469Z,10.80
2018-10-16T16:08:54.935Z,9.85
2018-10-16T16:11:24.343Z,10.80
2018-10-16T16:13:53.056Z,10.13
2018-10-16T16:16:24.825Z,9.80
2018-10-16T16:18:54.764Z,11.40
2018-10-16T16:21:23.257Z,11.33
2018-10-16T16:23:51.815Z,11.08
2018-10-16T16:26:22.367Z,10.58
2018-10-16T16:28:50.951Z,11.43
2018-10-16T16:31:19.766Z,12.37
2018-10-16T16:33:48.288Z,11.70
2018-10-16T16:36:17.474Z,14.80
2018-10-16T16:38:45.850Z,11.70
2018-10-16T16:41:15.229Z,10.82
2018-10-16T16:43:45.965Z,12.25
2018-10-16T16:46:14.662Z,14.65
2018-10-16T16:48:43.678Z,14.23
2018-10-16T16:51:12.233Z,12.05
2018-10-16T16:53:40.696Z,12.07
2018-10-16T16:56:09.204Z,11.22
2018-10-16T16:58:37.990Z,11.03
2018-10-16T17:01:06.698Z,10.40
2018-10-16T17:03:35.272Z,11.15
2018-10-16T17:06:03.662Z,10.68
2018-10-16T17:08:32.641Z,10.30
2018-10-16T17:11:01.218Z,10.63
2018-10-16T17:13:29.542Z,9.95
2018-10-16T17:15:58.178Z,9.85
2018-10-16T17:18:27.198Z,10.18
2018-10-16T17:20:55.557Z,10.08
2018-10-16T17:23:24.336Z,10.45
2018-10-16T17:25:53.715Z,10.23
2018-10-16T17:28:21.638Z,10.53
2018-10-16T17:30:49.988Z,10.45
2018-10-16T17:33:18.456Z,11.30
2018-10-16T17:35:46.831Z,11.38
2018-10-16T17:38:15.187Z,11.35
2018-10-16T17:40:43.567Z,10.32
2018-10-16T17:43:11.908Z,11.00
2018-10-16T17:45:41.107Z,10.88
2018-10-16T17:48:09.925Z,12.23
2018-10-16T17:50:38.970Z,12.40
2018-10-16T17:53:07.379Z,11.15
2018-10-16T17:55:39.614Z,11.70
2018-10-16T17:58:08.122Z,11.78
2018-10-16T18:00:36.726Z,12.58
2018-10-16T18:03:06.330Z,12.05
2018-10-16T18:05:34.639Z,11.95
2018-10-16T18:08:03.409Z,13.32
2018-10-16T18:10:32.214Z,13.43
2018-10-16T18:13:00.904Z,12.60
2018-10-16T18:15:29.206Z,12.93
2018-10-16T18:17:57.811Z,12.85
2018-10-16T18:20:26.142Z,13.62
2018-10-16T18:22:55.254Z,13.15
2018-10-16T18:25:23.648Z,13.00
2018-10-16T18:27:52.114Z,13.53
2018-10-16T18:30:20.538Z,13.78
2018-10-16T18:32:48.853Z,13.08
2018-10-16T18:35:18.138Z,13.03
2018-10-16T18:37:46.473Z,14.60
2018-10-16T18:40:14.916Z,13.75
2018-10-16T18:42:43.336Z,15.20
2018-10-16T18:45:13.424Z,14.78
2018-10-16T18:50:03.932Z,14.83
2018-10-16T18:52:32.566Z,13.98
2018-10-16T18:55:01.326Z,14.93
2018-10-16T18:57:30.064Z,13.75
2018-10-16T18:59:59.137Z,12.95
2018-10-16T19:02:27.923Z,14.05
2018-10-16T19:11:54.813Z,13.75
2018-10-16T19:14:24.031Z,13.20
2018-10-16T19:16:53.082Z,13.85
2018-10-16T19:19:21.458Z,14.90
2018-10-16T19:21:49.827Z,13.80
2018-10-16T19:24:18.210Z,13.58
2018-10-16T19:26:46.551Z,13.88
2018-10-16T19:29:15.309Z,14.47
2018-10-16T19:31:43.678Z,14.43
2018-10-16T19:34:12.081Z,13.58
2018-10-16T19:36:40.650Z,13.62
2018-10-16T19:39:10.062Z,14.13
2018-10-16T19:41:38.553Z,13.43
2018-10-16T19:44:07.320Z,13.45
2018-10-16T19:46:36.132Z,14.15
2018-10-16T19:49:04.658Z,13.70
2018-10-16T19:51:33.390Z,13.22
2018-10-16T19:54:01.829Z,14.07
2018-10-16T19:56:30.668Z,15.75
2018-10-16T19:58:59.694Z,15.08
2018-10-16T20:01:28.096Z,14.87
2018-10-16T20:03:57.346Z,14.70
2018-10-16T20:06:25.734Z,14.58
2018-10-16T20:08:58.535Z,14.80
2018-10-16T20:11:28.994Z,14.83
2018-10-16T20:13:57.814Z,15.43
2018-10-16T20:16:26.908Z,14.65
2018-10-16T20:18:56.759Z,15.03
2018-10-16T20:21:25.336Z,14.45
2018-10-16T20:23:54.354Z,14.38
2018-10-16T20:26:22.979Z,13.40
2018-10-16T20:28:53.684Z,14.43
2018-10-16T20:31:22.120Z,14.58
2018-10-16T20:33:50.514Z,14.87
2018-10-16T20:36:18.973Z,14.58
2018-10-16T20:38:47.426Z,14.13
2018-10-16T20:41:16.533Z,15.10
2018-10-16T20:43:44.966Z,13.90
2018-10-16T20:46:13.868Z,15.23
2018-10-16T20:48:42.940Z,14.28
2018-10-16T20:51:11.294Z,14.58
2018-10-16T20:53:39.799Z,14.93
2018-10-16T20:56:08.309Z,14.93
2018-10-16T20:58:36.710Z,13.80
2018-10-16T21:01:05.372Z,16.37
2018-10-16T21:03:34.120Z,15.45
2018-10-16T21:06:02.731Z,14.83
2018-10-16T21:08:31.478Z,14.73
2018-10-16T21:10:59.865Z,14.58
2018-10-16T21:13:28.246Z,14.45
2018-10-16T21:15:57.045Z,15.93
2018-10-16T21:18:25.995Z,15.35
2018-10-16T21:20:54.681Z,14.80
2018-10-16T21:23:23.366Z,17.03
2018-10-16T21:25:51.992Z,15.40
2018-10-16T21:28:20.366Z,14.30
2018-10-16T21:30:50.080Z,14.28
2018-10-16T21:33:18.410Z,15.13
2018-10-16T21:35:54.565Z,14.65
2018-10-16T21:38:23.343Z,14.60
2018-10-16T21:40:51.871Z,14.80
2018-10-16T21:43:20.184Z,14.80
2018-10-16T21:45:48.726Z,17.27
2018-10-16T21:48:17.516Z,15.10
2018-10-16T21:50:45.849Z,15.33
2018-10-16T21:53:14.237Z,15.50
2018-10-16T21:55:42.609Z,15.63
2018-10-16T21:58:11.677Z,14.87
2018-10-16T22:00:45.467Z,15.60
2018-10-16T22:03:14.490Z,15.03
2018-10-16T22:05:42.766Z,15.43
2018-10-16T22:08:11.876Z,15.63
2018-10-16T22:10:40.145Z,14.87
2018-10-16T22:13:09.888Z,13.57
2018-10-16T22:15:38.140Z,14.63
2018-10-16T22:18:07.272Z,14.53
2018-10-16T22:20:35.602Z,14.40
2018-10-16T22:25:39.897Z,14.83
2018-10-16T22:28:08.763Z,14.23
2018-10-16T22:30:37.983Z,14.90
2018-10-16T22:33:06.442Z,14.15
2018-10-16T22:35:35.582Z,14.53
2018-10-16T22:38:03.926Z,14.57
2018-10-16T22:40:32.294Z,14.13
2018-10-16T22:43:00.730Z,14.20
2018-10-16T22:45:29.738Z,14.67
2018-10-16T22:47:58.911Z,15.43
2018-10-16T22:50:27.255Z,13.93
2018-10-16T22:52:55.632Z,15.07
2018-10-16T22:55:24.766Z,14.50
2018-10-16T22:57:53.052Z,14.53
2018-10-16T23:00:21.353Z,13.67
2018-10-16T23:02:50.101Z,13.83
2018-10-16T23:05:18.400Z,14.03
2018-10-16T23:07:47.742Z,13.70
2018-10-16T23:10:16.240Z,13.70
2018-10-16T23:12:49.463Z,14.17
2018-10-16T23:17:58.457Z,13.72
2018-10-16T23:20:26.842Z,13.87
2018-10-16T23:22:55.178Z,13.58
2018-10-16T23:25:23.750Z,13.47
2018-10-16T23:27:52.078Z,13.67
2018-10-16T23:30:20.965Z,14.07
2018-10-16T23:32:49.295Z,13.67
2018-10-16T23:35:17.670Z,13.37
2018-10-16T23:37:46.645Z,13.00
2018-10-16T23:40:14.998Z,12.93
2018-10-16T23:42:43.367Z,13.43
2018-10-16T23:45:12.050Z,13.93
2018-10-16T23:47:40.629Z,15.00
2018-10-16T23:50:08.946Z,14.27
2018-10-16T23:52:37.762Z,13.63
2018-10-16T23:55:07.362Z,14.23
2018-10-16T23:57:35.678Z,14.00
